Time;durP1;ratioP1;P1;durP2;ratioP2;P2;SDS_P1;SDS_P2;PMS_P1;PMS_P2;Temp;Humidity;BMP_temperature;BMP_pressure;BME280_temperature;BME280_humidity;BME280_pressure;Samples;Min_cycle;Max_cycle;Signal;HPM_P1;HPM_P2
2023/06/27 00:02:26;;;;;;;6.45;1.88;;;;;;;-145.69;nan;51977.03;5074795;28;20645;-92
2023/06/27 00:04:56;;;;;;;5.20;1.50;;;;;;;-145.69;nan;51955.25;5074915;28;20206;-91
2023/06/27 00:07:27;;;;;;;6.13;1.55;;;;;;;-145.69;nan;51973.06;5074996;28;20846;-92
2023/06/27 00:09:55;;;;;;;5.53;1.70;;;;;;;-145.69;nan;51979.03;5074774;28;20207;-91
2023/06/27 00:12:22;;;;;;;2.58;1.40;;;;;;;-145.69;nan;51982.97;5074776;28;20217;-91
2023/06/27 00:14:49;;;;;;;4.43;1.75;;;;;;;-145.69;nan;51998.81;5074770;28;20213;-91
2023/06/27 00:17:16;;;;;;;7.50;2.17;;;;;;;-145.69;nan;51951.28;5074415;28;20234;-91
2023/06/27 00:19:44;;;;;;;6.32;1.92;;;;;;;-145.69;nan;51977.03;5074559;28;20252;-92
2023/06/27 00:22:11;;;;;;;5.05;1.73;;;;;;;-145.69;nan;51977.03;5074606;28;20207;-92
2023/06/27 00:24:38;;;;;;;6.07;1.85;;;;;;;-145.69;nan;51965.16;5074411;28;20531;-92
2023/06/27 00:27:07;;;;;;;4.47;1.90;;;;;;;-145.69;nan;51965.16;5074577;28;20664;-92
2023/06/27 00:29:33;;;;;;;6.65;1.65;;;;;;;-145.69;nan;51996.84;5074409;28;20226;-92
2023/06/27 00:32:00;;;;;;;5.32;1.70;;;;;;;-145.69;nan;51959.22;5074602;28;20206;-92
2023/06/27 00:34:26;;;;;;;5.78;1.98;;;;;;;-145.69;nan;51992.88;5074486;28;20206;-92
2023/06/27 00:36:53;;;;;;;7.72;2.05;;;;;;;-145.69;nan;51977.03;5074443;28;20624;-92
2023/06/27 00:39:20;;;;;;;8.02;1.80;;;;;;;-145.69;nan;51957.25;5074342;28;20199;-92
2023/06/27 00:41:47;;;;;;;7.35;1.90;;;;;;;-145.69;nan;51981.00;5073479;28;20230;-92
2023/06/27 00:44:15;;;;;;;7.15;1.65;;;;;;;-145.69;nan;52034.47;5073411;28;20622;-93
2023/06/27 00:46:42;;;;;;;5.85;1.95;;;;;;;-145.69;nan;51990.91;5073328;28;20199;-91
2023/06/27 00:49:10;;;;;;;3.92;1.60;;;;;;;-145.69;nan;51971.09;5074026;28;20226;-90
2023/06/27 00:51:37;;;;;;;5.45;1.80;;;;;;;-145.69;nan;52000.81;5074364;28;20206;-91
2023/06/27 00:54:04;;;;;;;3.55;1.60;;;;;;;-145.69;nan;51981.00;5072502;28;20196;-91
2023/06/27 00:56:30;;;;;;;4.75;1.83;;;;;;;-145.69;nan;51992.88;5069806;28;20570;-91
2023/06/27 00:59:00;;;;;;;9.50;2.83;;;;;;;-145.69;nan;51969.13;5073990;28;20202;-92
2023/06/27 01:01:29;;;;;;;4.65;1.83;;;;;;;-145.69;nan;52010.69;5074126;28;20210;-92
2023/06/27 01:03:55;;;;;;;6.72;2.10;;;;;;;-145.69;nan;51994.88;5074040;28;20230;-92
2023/06/27 01:06:27;;;;;;;4.87;1.77;;;;;;;-145.69;nan;51994.88;5075460;28;20465;-92
2023/06/27 01:09:00;;;;;;;10.05;2.10;;;;;;;-145.69;nan;52002.78;5078331;28;20445;-92
2023/06/27 01:11:35;;;;;;;5.20;1.75;;;;;;;-145.69;nan;52004.75;5078293;28;20214;-92
2023/06/27 01:14:04;;;;;;;4.50;2.05;;;;;;;-145.69;nan;51977.03;5078200;28;20202;-92
2023/06/27 01:16:35;;;;;;;5.03;1.70;;;;;;;-145.69;nan;52000.81;5078255;28;20214;-92
2023/06/27 01:19:05;;;;;;;9.23;1.85;;;;;;;-145.69;nan;52008.72;5076882;28;20635;-93
2023/06/27 01:21:35;;;;;;;7.95;2.10;;;;;;;-145.69;nan;51963.19;5076707;28;20198;-92
2023/06/27 01:24:06;;;;;;;7.63;2.10;;;;;;;-145.69;nan;51996.84;5077819;28;20201;-92
2023/06/27 01:26:32;;;;;;;2.75;1.48;;;;;;;-145.69;nan;51965.16;5077708;28;20209;-92
2023/06/27 01:28:59;;;;;;;7.17;2.03;;;;;;;-145.69;nan;52016.66;5076919;28;20202;-92
2023/06/27 01:31:30;;;;;;;5.13;2.05;;;;;;;-145.69;nan;52034.47;5077822;28;20202;-92
2023/06/27 01:34:03;;;;;;;11.03;1.80;;;;;;;-145.69;nan;51984.97;5077736;28;20222;-92
2023/06/27 01:36:36;;;;;;;3.55;1.50;;;;;;;-145.69;nan;52004.75;5077671;28;20221;-92
2023/06/27 01:39:08;;;;;;;4.13;1.70;;;;;;;-145.69;nan;51996.84;5076816;28;20265;-92
2023/06/27 01:41:38;;;;;;;4.83;1.57;;;;;;;-145.69;nan;51990.91;5060513;28;20207;-92
2023/06/27 01:44:06;;;;;;;8.30;2.10;;;;;;;-145.69;nan;51996.84;5077768;28;20662;-91
2023/06/27 01:46:34;;;;;;;7.57;1.80;;;;;;;-145.69;nan;52000.81;5077517;28;20213;-91
2023/06/27 01:49:02;;;;;;;6.28;1.80;;;;;;;-145.69;nan;51998.81;5077407;28;20585;-92
2023/06/27 01:51:29;;;;;;;9.07;1.90;;;;;;;-145.69;nan;52026.53;5077456;28;20286;-92
2023/06/27 01:53:56;;;;;;;3.20;1.83;;;;;;;-145.69;nan;52016.66;5076537;28;20213;-92
2023/06/27 01:56:24;;;;;;;5.43;1.90;;;;;;;-145.69;nan;51998.81;5076171;28;20202;-92
2023/06/27 01:58:50;;;;;;;9.23;1.95;;;;;;;-145.69;nan;51990.91;5077088;28;20234;-92
2023/06/27 02:01:17;;;;;;;4.22;2.33;;;;;;;-145.69;nan;51994.88;5077144;28;20210;-91
2023/06/27 02:03:44;;;;;;;6.43;2.28;;;;;;;-145.69;nan;52008.72;5076068;28;20210;-92
2023/06/27 02:06:11;;;;;;;5.65;1.95;;;;;;;-145.69;nan;52004.75;5076091;28;20618;-92
2023/06/27 02:08:37;;;;;;;5.45;2.17;;;;;;;-145.69;nan;51988.91;5077187;28;20199;-92
2023/06/27 02:11:03;;;;;;;10.93;2.08;;;;;;;-145.69;nan;51992.88;5076721;28;20229;-91
2023/06/27 02:13:34;;;;;;;5.03;2.03;;;;;;;-145.69;nan;52004.75;5075809;28;20230;-91
2023/06/27 02:16:00;;;;;;;5.88;1.95;;;;;;;-145.69;nan;51994.88;5076956;28;20213;-92
2023/06/27 02:18:27;;;;;;;3.20;1.77;;;;;;;-145.69;nan;52004.75;5075336;28;20225;-92
2023/06/27 02:20:53;;;;;;;3.95;1.88;;;;;;;-145.69;nan;52010.69;5076795;28;20195;-91
2023/06/27 02:23:19;;;;;;;5.37;2.03;;;;;;;-145.69;nan;52010.69;5076889;28;20210;-91
2023/06/27 02:25:46;;;;;;;9.65;1.80;;;;;;;-145.69;nan;52034.47;5076803;28;20211;-91
2023/06/27 02:28:12;;;;;;;4.82;1.98;;;;;;;-145.69;nan;51982.97;5077187;28;20207;-92
2023/06/27 02:30:40;;;;;;;6.17;2.20;;;;;;;-145.69;nan;52000.81;5076996;28;20213;-92
2023/06/27 02:33:07;;;;;;;4.22;1.98;;;;;;;-145.69;nan;52034.47;5076640;28;20198;-92
2023/06/27 02:35:33;;;;;;;5.87;2.10;;;;;;;-145.69;nan;52008.72;5076571;28;20214;-92
2023/06/27 02:38:00;;;;;;;6.67;1.87;;;;;;;-145.69;nan;52020.59;5076481;28;20222;-91
2023/06/27 02:40:28;;;;;;;9.27;2.08;;;;;;;-145.69;nan;52012.69;5076493;28;20206;-92
2023/06/27 02:42:54;;;;;;;5.53;1.90;;;;;;;-145.69;nan;52008.72;5076522;28;20225;-91
2023/06/27 02:45:21;;;;;;;3.17;1.80;;;;;;;-145.69;nan;52008.72;5075213;28;20234;-91
2023/06/27 02:47:49;;;;;;;4.70;1.70;;;;;;;-145.69;nan;52004.75;5076266;28;20203;-92
2023/06/27 02:50:15;;;;;;;3.95;2.03;;;;;;;-145.69;nan;52008.72;5075563;28;20234;-91
2023/06/27 02:52:42;;;;;;;6.53;2.25;;;;;;;-145.69;nan;52040.41;5077312;28;20294;-93
2023/06/27 02:55:09;;;;;;;7.97;1.90;;;;;;;-145.69;nan;52006.75;5076768;28;20310;-92
2023/06/27 02:57:35;;;;;;;7.37;1.90;;;;;;;-145.69;nan;52032.47;5076265;28;20227;-92
2023/06/27 03:00:03;;;;;;;6.32;2.08;;;;;;;-145.69;nan;52036.44;5076924;28;20194;-93
2023/06/27 03:02:29;;;;;;;4.47;1.58;;;;;;;-145.69;nan;52012.69;5076205;28;20210;-91
2023/06/27 03:04:57;;;;;;;7.15;1.75;;;;;;;-145.69;nan;52024.56;5075267;28;20205;-92
2023/06/27 03:07:24;;;;;;;7.47;1.90;;;;;;;-145.69;nan;52016.66;5075771;28;20927;-90
2023/06/27 03:09:50;;;;;;;4.85;1.90;;;;;;;-145.69;nan;52036.44;5076091;28;20212;-92
2023/06/27 03:12:17;;;;;;;4.88;2.20;;;;;;;-145.69;nan;52004.75;5075101;28;20195;-92
2023/06/27 03:14:44;;;;;;;5.70;1.88;;;;;;;-145.69;nan;52004.75;5075041;28;20665;-92
2023/06/27 03:17:10;;;;;;;5.28;1.98;;;;;;;-145.69;nan;52028.53;5075267;28;20245;-92
2023/06/27 03:19:37;;;;;;;4.68;2.10;;;;;;;-145.69;nan;52020.59;5075824;28;20222;-92
2023/06/27 03:22:06;;;;;;;3.55;1.75;;;;;;;-145.69;nan;52020.59;5076120;28;20221;-92
2023/06/27 03:24:32;;;;;;;5.07;2.00;;;;;;;-145.69;nan;52032.47;5075969;28;20198;-92
2023/06/27 03:26:59;;;;;;;6.30;1.92;;;;;;;-145.69;nan;52018.63;5075954;28;20722;-91
2023/06/27 03:29:26;;;;;;;6.35;1.73;;;;;;;-145.69;nan;52048.31;5075562;28;20292;-92
2023/06/27 03:31:52;;;;;;;4.38;1.95;;;;;;;-145.69;nan;52012.69;5075701;28;20205;-92
2023/06/27 03:34:19;;;;;;;6.10;2.00;;;;;;;-145.69;nan;52008.72;5076053;28;20637;-92
2023/06/27 03:36:45;;;;;;;8.68;2.42;;;;;;;-145.69;nan;52016.66;5075557;28;20561;-90
2023/06/27 03:39:13;;;;;;;4.93;1.75;;;;;;;-145.69;nan;52008.72;5075530;28;20231;-91
2023/06/27 03:41:39;;;;;;;3.55;1.83;;;;;;;-145.69;nan;52012.69;5075804;28;20265;-91
2023/06/27 03:44:08;;;;;;;5.40;2.13;;;;;;;-145.69;nan;52024.56;5075668;28;20301;-91
2023/06/27 03:46:35;;;;;;;6.80;2.20;;;;;;;-145.69;nan;51996.84;5075021;28;20779;-92
2023/06/27 03:49:01;;;;;;;9.45;2.20;;;;;;;-145.69;nan;52020.59;5074983;28;20310;-91
2023/06/27 03:51:28;;;;;;;6.00;1.90;;;;;;;-145.69;nan;52036.44;5075471;28;20206;-92
2023/06/27 03:53:54;;;;;;;3.60;1.75;;;;;;;-145.69;nan;52068.13;5075098;28;20539;-91
2023/06/27 03:56:22;;;;;;;6.45;2.03;;;;;;;-145.69;nan;51977.03;5075061;28;20205;-91
2023/06/27 03:58:49;;;;;;;4.00;2.00;;;;;;;-145.69;nan;52004.75;5074769;28;20294;-91
2023/06/27 04:01:15;;;;;;;4.93;2.03;;;;;;;-145.69;nan;52010.69;5075413;28;20206;-91
2023/06/27 04:03:42;;;;;;;6.32;2.30;;;;;;;-145.69;nan;52020.59;5074961;28;20206;-91
2023/06/27 04:06:09;;;;;;;5.50;1.80;;;;;;;-145.69;nan;52000.81;5075159;28;20650;-91
2023/06/27 04:08:35;;;;;;;4.13;1.90;;;;;;;-145.69;nan;52028.53;5075079;28;20195;-91
2023/06/27 04:11:02;;;;;;;5.95;2.28;;;;;;;-145.69;nan;52000.81;5074948;28;20237;-91
2023/06/27 04:13:30;;;;;;;7.05;2.00;;;;;;;-145.69;nan;52012.69;5075113;28;20286;-91
2023/06/27 04:15:57;;;;;;;5.93;2.10;;;;;;;-145.69;nan;52020.59;5075198;28;20206;-91
2023/06/27 04:18:24;;;;;;;6.47;2.08;;;;;;;-145.69;nan;52010.69;5074776;28;20302;-91
2023/06/27 04:20:50;;;;;;;6.60;2.13;;;;;;;-145.69;nan;52010.69;5074617;28;20199;-91
2023/06/27 04:23:17;;;;;;;4.53;2.45;;;;;;;-145.69;nan;52024.56;5074619;28;20205;-91
2023/06/27 04:25:45;;;;;;;11.80;2.40;;;;;;;-145.69;nan;52018.63;5074963;28;20201;-91
2023/06/27 04:28:12;;;;;;;5.45;2.00;;;;;;;-145.69;nan;52024.56;5074859;28;20276;-90
2023/06/27 04:30:39;;;;;;;4.97;2.10;;;;;;;-145.69;nan;52008.72;5074709;28;20202;-91
2023/06/27 04:33:06;;;;;;;5.35;2.00;;;;;;;-145.69;nan;52016.66;5074479;28;20207;-90
2023/06/27 04:35:33;;;;;;;5.95;1.88;;;;;;;-145.69;nan;52000.81;5074713;28;20304;-90
2023/06/27 04:37:59;;;;;;;4.35;2.00;;;;;;;-145.69;nan;52012.69;5074527;28;20202;-90
2023/06/27 04:40:26;;;;;;;8.32;2.00;;;;;;;-145.69;nan;52040.41;5074187;28;20281;-91
2023/06/27 04:42:52;;;;;;;5.47;2.08;;;;;;;-145.69;nan;51998.81;5074704;28;20205;-92
2023/06/27 04:45:19;;;;;;;6.68;2.30;;;;;;;-145.69;nan;52044.38;5073507;28;20250;-91
2023/06/27 04:47:47;;;;;;;5.10;2.20;;;;;;;-145.69;nan;52004.75;5074445;28;20546;-91
2023/06/27 04:50:18;;;;;;;4.07;1.80;;;;;;;-145.69;nan;51963.19;5074415;28;20237;-91
2023/06/27 04:52:44;;;;;;;4.20;1.90;;;;;;;-145.69;nan;52024.56;5074789;28;20217;-92
2023/06/27 04:55:13;;;;;;;5.55;2.08;;;;;;;-145.69;nan;51988.91;5074406;28;20198;-92
2023/06/27 04:57:40;;;;;;;7.70;2.10;;;;;;;-145.69;nan;52012.69;5074249;28;20203;-92
2023/06/27 05:00:10;;;;;;;9.07;2.17;;;;;;;-145.69;nan;52002.78;5073988;28;20226;-91
2023/06/27 05:02:37;;;;;;;4.63;2.10;;;;;;;-145.69;nan;51992.88;5074101;28;20203;-90
2023/06/27 05:05:08;;;;;;;5.97;2.20;;;;;;;-145.69;nan;52012.69;5074305;28;20207;-92
2023/06/27 05:07:34;;;;;;;2.92;1.90;;;;;;;-145.69;nan;52028.53;5074018;28;20672;-92
2023/06/27 05:10:01;;;;;;;6.00;2.00;;;;;;;-145.69;nan;52004.75;5074537;28;20210;-91
2023/06/27 05:12:28;;;;;;;5.15;2.03;;;;;;;-145.69;nan;52020.59;5074294;28;20217;-91
2023/06/27 05:14:54;;;;;;;5.35;1.80;;;;;;;-145.69;nan;52006.75;5074462;28;20207;-92
2023/06/27 05:17:21;;;;;;;3.85;2.13;;;;;;;-145.69;nan;52024.56;5074558;28;20285;-91
2023/06/27 05:19:47;;;;;;;4.68;2.03;;;;;;;-145.69;nan;51998.81;5073704;28;20222;-91
2023/06/27 05:22:15;;;;;;;7.38;2.42;;;;;;;-145.69;nan;52016.66;5074232;28;20207;-92
2023/06/27 05:24:42;;;;;;;7.72;2.33;;;;;;;-145.69;nan;51984.97;5074401;28;20234;-92
2023/06/27 05:27:08;;;;;;;9.32;2.35;;;;;;;-145.69;nan;52020.59;5074173;28;20214;-91
2023/06/27 05:29:35;;;;;;;6.10;1.85;;;;;;;-145.69;nan;51988.91;5074422;28;20233;-92
2023/06/27 05:32:02;;;;;;;4.30;2.10;;;;;;;-145.69;nan;52020.59;5074198;28;20256;-91
2023/06/27 05:34:31;;;;;;;5.50;2.03;;;;;;;-145.69;nan;51992.88;5073923;28;20198;-91
2023/06/27 05:36:57;;;;;;;6.47;1.95;;;;;;;-145.69;nan;52048.31;5074009;28;20207;-91
2023/06/27 05:39:25;;;;;;;3.95;1.83;;;;;;;-145.69;nan;51996.84;5073903;28;20223;-92
2023/06/27 05:41:52;;;;;;;6.90;1.83;;;;;;;-145.69;nan;52016.66;5074147;28;20230;-91
2023/06/27 05:44:21;;;;;;;6.63;2.22;;;;;;;-145.69;nan;51977.03;5074175;28;20213;-91
2023/06/27 05:46:48;;;;;;;6.75;1.85;;;;;;;-145.69;nan;52008.72;5073237;28;20442;-92
2023/06/27 05:49:16;;;;;;;4.43;2.20;;;;;;;-145.69;nan;52020.59;5073520;28;20226;-91
2023/06/27 05:51:42;;;;;;;7.28;2.08;;;;;;;-145.69;nan;52018.63;5074483;28;20198;-91
2023/06/27 05:54:09;;;;;;;5.97;1.83;;;;;;;-145.69;nan;52004.75;5076421;28;20653;-91
2023/06/27 05:56:37;;;;;;;4.97;2.20;;;;;;;-145.69;nan;52004.75;5077497;28;20282;-90
2023/06/27 05:59:04;;;;;;;8.55;2.30;;;;;;;-145.69;nan;51994.88;5077368;28;20731;-91
2023/06/27 06:01:31;;;;;;;3.40;1.80;;;;;;;-145.69;nan;51963.19;5077548;28;20203;-91
2023/06/27 06:03:57;;;;;;;8.07;2.33;;;;;;;-145.69;nan;51979.03;5077270;28;20201;-91
2023/06/27 06:06:27;;;;;;;3.33;1.70;;;;;;;-145.69;nan;51984.97;5077640;28;20217;-90
2023/06/27 06:08:53;;;;;;;4.20;2.00;;;;;;;-145.69;nan;51949.31;5077026;28;20199;-91
2023/06/27 06:11:21;;;;;;;7.60;1.60;;;;;;;-145.69;nan;52020.59;5077126;28;20198;-90
2023/06/27 06:13:51;;;;;;;5.90;2.47;;;;;;;-145.69;nan;51955.25;5077350;28;20198;-90
2023/06/27 06:16:18;;;;;;;6.63;1.92;;;;;;;-145.69;nan;51969.13;5077065;28;20217;-90
2023/06/27 06:18:44;;;;;;;5.43;1.70;;;;;;;-145.69;nan;51981.00;5076814;28;20230;-90
2023/06/27 06:21:12;;;;;;;6.72;1.90;;;;;;;-145.69;nan;51981.00;5076975;28;20202;-89
2023/06/27 06:23:38;;;;;;;8.38;2.10;;;;;;;-145.69;nan;51981.00;5076696;28;20209;-91
2023/06/27 06:26:05;;;;;;;6.35;1.77;;;;;;;-145.69;nan;51951.28;5076879;28;20657;-90
2023/06/27 06:28:31;;;;;;;5.15;2.22;;;;;;;-145.69;nan;51979.03;5075417;28;20210;-90
2023/06/27 06:30:59;;;;;;;9.60;2.00;;;;;;;-145.69;nan;51988.91;5076966;27;20202;-90
2023/06/27 06:33:26;;;;;;;6.03;1.70;;;;;;;-145.69;nan;51965.16;5075772;28;20234;-89
2023/06/27 06:35:52;;;;;;;8.48;2.10;;;;;;;-145.69;nan;51977.03;5076820;28;20237;-90
2023/06/27 06:38:19;;;;;;;10.75;2.38;;;;;;;-145.69;nan;51955.25;5076406;28;20195;-90
2023/06/27 06:40:45;;;;;;;5.22;2.17;;;;;;;-145.69;nan;51949.31;5076479;28;20654;-90
2023/06/27 06:43:12;;;;;;;6.95;1.98;;;;;;;-145.69;nan;51977.03;5076819;28;20227;-89
2023/06/27 06:45:38;;;;;;;9.93;2.25;;;;;;;-145.69;nan;51961.19;5076755;28;20207;-87
2023/06/27 06:48:06;;;;;;;6.80;1.95;;;;;;;-145.69;nan;51971.09;5076710;28;20206;-90
2023/06/27 06:50:33;;;;;;;9.40;2.10;;;;;;;-145.69;nan;51969.13;5076164;28;20230;-90
2023/06/27 06:53:00;;;;;;;7.47;1.92;;;;;;;-145.69;nan;51969.13;5075270;28;20214;-90
2023/06/27 06:55:26;;;;;;;9.25;2.40;;;;;;;-145.69;nan;51939.41;5076804;28;20211;-86
2023/06/27 06:57:53;;;;;;;7.00;1.70;;;;;;;-145.69;nan;51988.91;5076496;28;20205;-89
2023/06/27 07:00:20;;;;;;;6.75;2.10;;;;;;;-145.69;nan;51992.88;5075941;28;20229;-87
2023/06/27 07:02:47;;;;;;;5.68;1.77;;;;;;;-145.69;nan;51961.19;5076529;28;20210;-89
2023/06/27 07:05:15;;;;;;;5.70;1.85;;;;;;;-145.69;nan;51933.47;5075866;28;20199;-89
2023/06/27 07:07:41;;;;;;;6.65;2.10;;;;;;;-145.69;nan;51973.06;5076287;28;20206;-91
2023/06/27 07:10:09;;;;;;;5.22;1.75;;;;;;;-145.69;nan;51949.31;5076087;28;20203;-90
2023/06/27 07:12:35;;;;;;;7.03;1.88;;;;;;;-145.69;nan;51973.06;5076122;28;20205;-90
2023/06/27 07:15:02;;;;;;;5.07;1.50;;;;;;;-145.69;nan;51941.41;5076172;28;20215;-90
2023/06/27 07:17:28;;;;;;;7.80;1.90;;;;;;;-145.69;nan;51965.16;5075910;28;20198;-89
2023/06/27 07:19:55;;;;;;;7.20;1.95;;;;;;;-145.69;nan;51933.47;5076040;28;20624;-90
2023/06/27 07:22:23;;;;;;;9.48;2.15;;;;;;;-145.69;nan;51965.16;5075695;28;20664;-90
2023/06/27 07:24:49;;;;;;;9.00;2.47;;;;;;;-145.69;nan;51961.19;5075270;28;20198;-88
2023/06/27 07:27:16;;;;;;;5.57;1.98;;;;;;;-145.69;nan;51984.97;5074887;28;20210;-89
2023/06/27 07:29:42;;;;;;;8.80;2.08;;;;;;;-145.69;nan;51941.41;5075552;28;20645;-89
2023/06/27 07:32:11;;;;;;;12.38;1.85;;;;;;;-145.69;nan;51957.25;5057515;28;20205;-90
2023/06/27 07:34:39;;;;;;;6.72;1.88;;;;;;;-145.69;nan;51949.31;5075479;28;20194;-87
2023/06/27 07:37:06;;;;;;;6.05;2.10;;;;;;;-145.69;nan;51957.25;5075060;28;20207;-91
2023/06/27 07:39:34;;;;;;;14.25;2.45;;;;;;;-145.69;nan;51955.25;5075049;28;20223;-88
2023/06/27 07:42:01;;;;;;;6.57;1.88;;;;;;;-145.69;nan;51907.72;5075428;28;20225;-93
2023/06/27 07:44:27;;;;;;;6.20;2.13;;;;;;;-145.69;nan;51943.38;5075192;28;20618;-90
2023/06/27 07:46:54;;;;;;;7.78;2.30;;;;;;;-145.69;nan;51965.16;5075469;28;20203;-90
2023/06/27 07:49:20;;;;;;;205.15;19.98;;;;;;;-145.69;nan;51935.47;5075234;28;20241;-92
2023/06/27 07:51:51;;;;;;;8.32;2.03;;;;;;;-145.69;nan;51941.41;5075332;28;20206;-89
2023/06/27 07:54:17;;;;;;;18.33;4.50;;;;;;;-145.69;nan;51929.50;5075382;28;20206;-92
2023/06/27 07:56:46;;;;;;;7.07;2.22;;;;;;;-145.69;nan;51982.97;5075212;28;20214;-91
2023/06/27 07:59:13;;;;;;;15.60;3.15;;;;;;;-145.69;nan;51913.69;5075081;28;20222;-90
2023/06/27 08:01:40;;;;;;;7.57;2.40;;;;;;;-145.69;nan;51953.28;5074979;28;20199;-92
2023/06/27 08:04:07;;;;;;;7.47;2.60;;;;;;;-145.69;nan;51943.38;5074776;28;20198;-89
2023/06/27 08:06:33;;;;;;;6.78;1.95;;;;;;;-145.69;nan;51905.75;5075157;28;20203;-91
2023/06/27 08:09:00;;;;;;;8.55;2.13;;;;;;;-145.69;nan;51935.47;5074449;28;20203;-90
2023/06/27 08:11:27;;;;;;;13.18;2.17;;;;;;;-145.69;nan;51941.41;5074993;28;20203;-90
2023/06/27 08:13:55;;;;;;;4.18;1.67;;;;;;;-145.69;nan;51937.44;5074376;28;20608;-88
2023/06/27 08:16:22;;;;;;;11.27;1.85;;;;;;;-145.69;nan;51949.31;5073858;28;20202;-88
2023/06/27 08:18:48;;;;;;;7.18;2.25;;;;;;;-145.69;nan;51937.44;5074643;28;20202;-88
2023/06/27 08:21:15;;;;;;;21.33;4.60;;;;;;;-145.69;nan;51917.63;5075018;28;20226;-89
2023/06/27 08:23:42;;;;;;;7.20;2.13;;;;;;;-145.69;nan;51917.63;5073605;28;20633;-89
2023/06/27 08:26:08;;;;;;;4.35;1.77;;;;;;;-145.69;nan;51897.84;5074309;28;20195;-90
2023/06/27 08:28:35;;;;;;;5.88;2.30;;;;;;;-145.69;nan;51921.59;5074531;28;20561;-89
2023/06/27 08:31:03;;;;;;;6.55;2.03;;;;;;;-145.69;nan;51921.59;5074390;28;20209;-87
2023/06/27 08:33:30;;;;;;;4.25;1.80;;;;;;;-145.69;nan;51909.72;5074505;28;20214;-90
2023/06/27 08:36:03;;;;;;;10.75;2.00;;;;;;;-145.69;nan;51889.91;5074575;28;20203;-89
2023/06/27 08:38:33;;;;;;;6.28;1.90;;;;;;;-145.69;nan;51941.41;5074504;28;20271;-86
2023/06/27 08:41:06;;;;;;;9.52;1.83;;;;;;;-145.69;nan;51951.28;5073359;28;20246;-88
2023/06/27 08:43:33;;;;;;;7.32;2.15;;;;;;;-145.69;nan;51955.25;5074550;28;20198;-90
2023/06/27 08:46:00;;;;;;;7.72;1.90;;;;;;;-145.69;nan;51937.44;5074219;28;20206;-88
2023/06/27 08:48:28;;;;;;;4.35;1.88;;;;;;;-145.69;nan;51947.34;5073285;28;20217;-89
2023/06/27 08:50:57;;;;;;;4.45;1.80;;;;;;;-145.69;nan;51943.38;5072627;28;20284;-84
2023/06/27 08:53:28;;;;;;;13.57;1.98;;;;;;;-145.69;nan;51923.56;5074221;28;20577;-89
2023/06/27 08:56:01;;;;;;;7.00;1.90;;;;;;;-145.69;nan;51945.34;5074236;28;20554;-87
2023/06/27 08:58:32;;;;;;;5.97;1.60;;;;;;;-145.69;nan;51941.41;5074015;28;20206;-88
2023/06/27 09:00:59;;;;;;;6.78;1.63;;;;;;;-145.69;nan;51965.16;5073717;28;20317;-86
2023/06/27 09:03:28;;;;;;;4.28;1.80;;;;;;;-145.69;nan;51919.63;5074200;28;20206;-87
2023/06/27 09:05:56;;;;;;;6.25;1.92;;;;;;;-145.69;nan;51957.25;5060707;28;20210;-87
2023/06/27 09:08:23;;;;;;;11.00;1.80;;;;;;;-145.69;nan;51945.34;5073602;28;20642;-86
2023/06/27 09:10:50;;;;;;;9.25;2.03;;;;;;;-145.69;nan;51921.59;5073998;28;20209;-89
2023/06/27 09:13:17;;;;;;;4.03;1.70;;;;;;;-145.69;nan;51913.69;5074222;28;20207;-89
2023/06/27 09:15:44;;;;;;;4.75;1.83;;;;;;;-145.69;nan;51887.94;5074035;28;20294;-89
2023/06/27 09:18:11;;;;;;;5.50;1.60;;;;;;;-145.69;nan;51878.03;5073600;28;20199;-86
2023/06/27 09:20:39;;;;;;;5.72;1.85;;;;;;;-145.69;nan;51876.06;5073721;28;20237;-85
2023/06/27 09:23:06;;;;;;;5.43;1.95;;;;;;;-145.69;nan;51850.31;5074185;28;20202;-87
2023/06/27 09:25:35;;;;;;;5.35;1.85;;;;;;;-145.69;nan;51941.41;5073993;28;20695;-87
2023/06/27 09:28:16;;;;;;;5.93;1.48;;;;;;;-145.69;nan;51870.13;5076679;28;20202;-89
2023/06/27 09:30:51;;;;;;;4.35;1.67;;;;;;;-145.69;nan;51864.16;5076602;28;20206;-88
2023/06/27 09:33:19;;;;;;;6.93;1.52;;;;;;;-145.69;nan;51860.22;5077937;28;20206;-88
2023/06/27 09:35:47;;;;;;;7.15;1.65;;;;;;;-145.69;nan;51870.13;5077158;28;20209;-85
2023/06/27 09:38:14;;;;;;;8.55;1.88;;;;;;;-145.69;nan;51880.00;5077319;28;20675;-85
2023/06/27 09:40:41;;;;;;;7.57;1.90;;;;;;;-145.69;nan;51880.00;5077262;28;20237;-89
2023/06/27 09:43:11;;;;;;;10.75;1.85;;;;;;;-145.69;nan;51870.13;5077690;28;20198;-87
2023/06/27 09:45:37;;;;;;;4.35;1.60;;;;;;;-145.69;nan;51905.75;5076604;28;20477;-87
2023/06/27 09:48:08;;;;;;;5.15;1.80;;;;;;;-145.69;nan;51882.00;5076848;28;20203;-86
2023/06/27 09:50:35;;;;;;;9.57;2.30;;;;;;;-145.69;nan;51860.22;5076487;28;20231;-85
2023/06/27 09:53:04;;;;;;;5.30;1.65;;;;;;;-145.69;nan;51874.06;5077587;28;20206;-89
2023/06/27 09:55:30;;;;;;;8.43;2.20;;;;;;;-145.69;nan;51880.00;5077007;28;20557;-86
2023/06/27 09:57:58;;;;;;;8.45;1.83;;;;;;;-145.69;nan;51880.00;5077026;28;20226;-86
2023/06/27 10:00:26;;;;;;;6.55;1.67;;;;;;;-145.69;nan;51864.16;5077370;28;20272;-88
2023/06/27 10:02:54;;;;;;;7.65;2.25;;;;;;;-145.69;nan;51862.19;5077188;28;20203;-87
2023/06/27 10:05:22;;;;;;;8.13;1.50;;;;;;;-145.69;nan;51876.06;5077384;28;20201;-88
2023/06/27 10:07:50;;;;;;;4.93;1.80;;;;;;;-145.69;nan;51846.34;5077154;28;20290;-88
2023/06/27 10:10:20;;;;;;;4.60;1.65;;;;;;;-145.69;nan;51882.00;5076610;28;20210;-87
2023/06/27 10:12:47;;;;;;;3.15;1.48;;;;;;;-145.69;nan;51842.38;5077216;28;20209;-88
2023/06/27 10:15:14;;;;;;;5.10;1.77;;;;;;;-145.69;nan;51858.22;5077059;28;20665;-89
2023/06/27 10:17:40;;;;;;;4.80;1.45;;;;;;;-145.69;nan;51828.53;5067483;28;20210;-89
2023/06/27 10:20:11;;;;;;;6.93;1.80;;;;;;;-145.69;nan;51866.16;5056505;28;20223;-85
2023/06/27 10:22:40;;;;;;;4.68;1.70;;;;;;;-145.69;nan;51834.47;5056317;28;20219;-86
2023/06/27 10:25:09;;;;;;;4.82;1.73;;;;;;;-145.69;nan;51866.16;5056228;28;20438;-88
2023/06/27 10:27:39;;;;;;;7.63;1.95;;;;;;;-145.69;nan;51842.38;5061851;28;20198;-87
2023/06/27 10:30:13;;;;;;;4.97;1.75;;;;;;;-145.69;nan;51846.34;5075026;28;20321;-85
2023/06/27 10:32:43;;;;;;;8.80;2.33;;;;;;;-145.69;nan;51846.34;5076131;28;20223;-87
2023/06/27 10:35:12;;;;;;;5.65;1.63;;;;;;;-145.69;nan;51822.59;5076898;28;20290;-88
2023/06/27 10:37:42;;;;;;;7.85;1.60;;;;;;;-145.69;nan;51854.28;5075924;28;20535;-88
2023/06/27 10:40:09;;;;;;;5.72;1.60;;;;;;;-145.69;nan;51840.41;5074972;28;20715;-85
2023/06/27 10:42:38;;;;;;;4.60;1.60;;;;;;;-145.69;nan;51818.63;5075163;28;20219;-85
2023/06/27 10:45:09;;;;;;;5.50;2.00;;;;;;;-145.69;nan;51846.34;5075417;28;20195;-87
2023/06/27 10:47:38;;;;;;;3.42;1.40;;;;;;;-145.69;nan;51848.34;5076532;28;20665;-87
2023/06/27 10:50:10;;;;;;;13.23;4.50;;;;;;;-145.69;nan;51862.19;5075826;28;20230;-87
2023/06/27 10:52:37;;;;;;;5.53;1.80;;;;;;;-145.69;nan;51840.41;5076352;28;20223;-89
2023/06/27 10:55:23;;;;;;;5.03;1.90;;;;;;;-145.69;nan;51820.59;5075947;28;20198;-85
2023/06/27 10:58:02;;;;;;;4.97;1.70;;;;;;;-145.69;nan;51826.56;5076722;28;20294;-88
2023/06/27 11:00:32;;;;;;;8.93;1.52;;;;;;;-145.69;nan;51775.06;5076292;28;20222;-87
2023/06/27 11:03:03;;;;;;;8.23;1.55;;;;;;;-145.69;nan;51820.59;5076106;28;20203;-88
2023/06/27 11:05:38;;;;;;;6.82;2.03;;;;;;;-145.69;nan;51816.66;5076072;28;20207;-88
2023/06/27 11:08:09;;;;;;;10.18;2.05;;;;;;;-145.69;nan;51800.81;5056536;28;20191;-89
2023/06/27 11:10:39;;;;;;;4.72;1.48;;;;;;;-145.69;nan;51802.78;5073123;28;20380;-89
2023/06/27 11:13:21;;;;;;;4.47;1.60;;;;;;;-145.69;nan;51761.22;5075909;28;20264;-89
2023/06/27 11:15:49;;;;;;;4.85;1.65;;;;;;;-145.69;nan;51828.53;5076145;28;20207;-90
2023/06/27 11:18:19;;;;;;;3.53;1.33;;;;;;;-145.69;nan;51786.94;5075535;28;20237;-88
2023/06/27 11:20:46;;;;;;;3.13;1.40;;;;;;;-145.69;nan;51830.50;5074456;28;20226;-86
2023/06/27 11:23:17;;;;;;;6.22;1.88;;;;;;;-145.69;nan;51824.56;5075522;28;20199;-87
2023/06/27 11:25:47;;;;;;;7.00;1.50;;;;;;;-145.69;nan;51796.84;5075843;28;20210;-88
2023/06/27 11:28:17;;;;;;;3.88;1.40;;;;;;;-145.69;nan;51810.72;5075516;28;20210;-85
2023/06/27 11:30:44;;;;;;;2.72;1.50;;;;;;;-145.69;nan;51822.59;5074534;28;20203;-86
2023/06/27 11:33:13;;;;;;;8.18;1.60;;;;;;;-145.69;nan;51826.56;5075125;28;20206;-85
2023/06/27 11:35:41;;;;;;;5.22;1.88;;;;;;;-145.69;nan;51783.00;5075703;28;20202;-88